world map with LZTT marked

LZTT - Airport

This information may not be accurate or current and is not valid for navigation or flight planning. No warranty of fitness for any purpose is made or implied.

flag of Slovakia

Donate via PayPal

Additional information is available on the NEW Great Circle Mapper

Location
City:  Poprad, Slovakia
Name:Poprad-Tatry
ICAO / IATA:LZTT / TAT

Details
Type:Airport (Aerodrome, Airfield)
Use:Public/Civil
Latitude:49°04'25"N (49.073594)
Longitude:20°14'28"E (20.241142)
Datum:WGS 1984
Elevation:2356 ft (718 m)
Runways:1
Longest:8530 × 148 ft (2600 × 45 m)

Time
Timezone:UTC+1 (DST+4)
Local Time:

Weather
METAR:LZTT  200730Z 01002KT 9999 FEW005 SCT027 M02/M03 Q1017 NOSIG
TAF:LZTT  (expired)

Related Locations
Nearby:
Farthest:CHT: 11564 mi / 18611 km
Waitangi [Tuuta], CIT, NZ

Find:

   beyond  
but within

Other Information
Maps:
Sources:

  


 


Great Circle Mapper   Great Circle Mapper
Great Circle Mapper FAQ   Great Circle Mapper FAQ
  Karl's Home Page
KLSē   KLSē Home
   GC on Facebook
Airlines of the World   Airlines of the World
Donate via PayPal


Copyright © 2004-2018, Karl L. Swartz. All rights reserved.
All trademarks mentioned herein belong to their respective owners.

Please see credits for attribution and copyright information.

Karl Swartz <karl@kls2.com>
  Powered by FreeBSD
Valid HTML 4.01!
Labeled with ICRA
hCard Microformat
Geo Microformat